createdAt,value
2018-10-21T00:00:04.319Z,0.00
2018-10-21T00:01:04.313Z,0.00
2018-10-21T00:02:04.316Z,0.00
2018-10-21T00:03:04.319Z,0.00
2018-10-21T00:04:04.859Z,0.00
2018-10-21T00:05:04.863Z,0.00
2018-10-21T00:06:04.273Z,0.00
2018-10-21T00:07:04.272Z,0.00
2018-10-21T00:08:04.259Z,0.00
2018-10-21T00:09:04.285Z,0.00
2018-10-21T00:10:04.251Z,0.00
2018-10-21T00:11:04.237Z,0.00
2018-10-21T00:12:04.231Z,0.00
2018-10-21T00:13:04.225Z,0.00
2018-10-21T00:14:04.241Z,0.00
2018-10-21T00:15:04.227Z,0.00
2018-10-21T00:16:04.197Z,0.00
2018-10-21T00:17:04.196Z,0.00
2018-10-21T00:18:04.247Z,0.00
2018-10-21T00:19:04.172Z,0.00
2018-10-21T00:20:04.170Z,0.00
2018-10-21T00:21:04.176Z,0.00
2018-10-21T00:22:04.149Z,0.00
2018-10-21T00:23:04.143Z,0.00
2018-10-21T00:24:04.128Z,0.00
2018-10-21T00:25:04.869Z,0.00
2018-10-21T00:26:04.129Z,0.00
2018-10-21T00:27:04.134Z,0.00
2018-10-21T00:28:04.882Z,0.00
2018-10-21T00:29:04.108Z,0.00
2018-10-21T00:30:04.083Z,0.00
2018-10-21T00:31:08.870Z,0.00
2018-10-21T00:32:05.874Z,0.00
2018-10-21T00:33:04.879Z,0.00
2018-10-21T00:34:04.052Z,0.00
2018-10-21T00:35:04.871Z,0.00
2018-10-21T00:36:04.048Z,0.00
2018-10-21T00:37:04.032Z,0.00
2018-10-21T00:38:04.034Z,0.00
2018-10-21T00:39:04.098Z,0.00
2018-10-21T00:40:06.884Z,0.00
2018-10-21T00:41:04.002Z,0.00
2018-10-21T00:42:05.876Z,0.00
2018-10-21T00:43:03.993Z,0.00
2018-10-21T00:44:04.875Z,0.00
2018-10-21T00:45:03.967Z,0.00
2018-10-21T00:46:03.957Z,0.00
2018-10-21T00:47:06.875Z,0.00
2018-10-21T00:48:03.938Z,0.00
2018-10-21T00:49:03.937Z,0.00
2018-10-21T00:50:03.925Z,0.00
2018-10-21T00:51:03.928Z,0.00
2018-10-21T00:52:04.881Z,0.00
2018-10-21T00:53:04.879Z,0.00
2018-10-21T00:54:04.913Z,0.00
2018-10-21T00:55:04.909Z,0.00
2018-10-21T00:56:03.878Z,0.00
2018-10-21T00:57:04.431Z,0.00
2018-10-21T00:58:04.387Z,0.00
2018-10-21T00:59:04.379Z,0.00
2018-10-21T01:00:03.843Z,0.00
2018-10-21T01:01:04.380Z,0.00
2018-10-21T01:02:04.400Z,0.00
2018-10-21T01:03:03.839Z,0.00
2018-10-21T01:04:03.812Z,0.00
2018-10-21T01:05:03.812Z,0.00
2018-10-21T01:06:03.792Z,0.00
2018-10-21T01:07:08.396Z,0.00
2018-10-21T01:08:03.793Z,0.00
2018-10-21T01:09:03.802Z,0.00
2018-10-21T01:10:03.758Z,0.00
2018-10-21T01:11:03.752Z,0.00
2018-10-21T01:12:03.751Z,0.00
2018-10-21T01:13:03.740Z,0.00
2018-10-21T01:14:04.385Z,0.00
2018-10-21T01:15:03.772Z,0.00
2018-10-21T01:16:03.716Z,0.00
2018-10-21T01:17:03.703Z,0.00
2018-10-21T01:18:04.385Z,0.00
2018-10-21T01:19:03.708Z,0.00
2018-10-21T01:20:03.687Z,0.00
2018-10-21T01:21:03.704Z,0.00
2018-10-21T01:22:03.683Z,0.00
2018-10-21T01:23:03.657Z,0.00
2018-10-21T01:24:03.648Z,0.00
2018-10-21T01:25:03.643Z,0.00
2018-10-21T01:26:04.389Z,0.00
2018-10-21T01:27:04.422Z,0.00
2018-10-21T01:28:03.619Z,0.00
2018-10-21T01:29:03.618Z,0.00
2018-10-21T01:30:03.608Z,0.00
2018-10-21T01:31:06.390Z,0.00
2018-10-21T01:32:03.583Z,0.00
2018-10-21T01:33:03.610Z,0.00
2018-10-21T01:34:03.568Z,0.00
2018-10-21T01:35:04.394Z,0.00
2018-10-21T01:36:03.549Z,0.00
2018-10-21T01:37:03.548Z,0.00
2018-10-21T01:38:06.455Z,0.00
2018-10-21T01:39:04.450Z,0.00
2018-10-21T01:40:03.518Z,0.00
2018-10-21T01:41:04.395Z,0.00
2018-10-21T01:42:04.396Z,0.00
2018-10-21T01:43:03.497Z,0.00
2018-10-21T01:44:03.483Z,0.00
2018-10-21T01:45:05.555Z,0.00
2018-10-21T01:46:03.469Z,0.00
2018-10-21T01:47:28.453Z,0.00
2018-10-21T01:48:04.409Z,0.00
2018-10-21T01:49:03.454Z,0.00
2018-10-21T01:50:03.440Z,0.00
2018-10-21T01:51:03.450Z,0.00
2018-10-21T01:52:03.418Z,0.00
2018-10-21T01:53:03.409Z,0.00
2018-10-21T01:54:03.922Z,0.00
2018-10-21T01:55:04.897Z,0.00
2018-10-21T01:56:03.898Z,0.00
2018-10-21T01:57:03.383Z,0.00
2018-10-21T01:58:03.377Z,0.00
2018-10-21T01:59:03.368Z,0.00
2018-10-21T02:00:03.361Z,0.00
2018-10-21T02:01:03.339Z,0.00
2018-10-21T02:02:03.906Z,0.00
2018-10-21T02:03:03.399Z,0.00
2018-10-21T02:04:03.319Z,0.00
2018-10-21T02:05:03.316Z,0.00
2018-10-21T02:06:03.302Z,0.00
2018-10-21T02:07:03.300Z,0.00
2018-10-21T02:08:03.300Z,0.00
2018-10-21T02:09:03.303Z,0.00
2018-10-21T02:10:03.274Z,0.00
2018-10-21T02:11:03.265Z,0.00
2018-10-21T02:12:03.256Z,0.00
2018-10-21T02:14:35.752Z,0.00
2018-10-21T02:15:35.711Z,0.00
2018-10-21T02:16:38.412Z,0.00
2018-10-21T02:17:36.413Z,0.00
2018-10-21T02:18:35.686Z,0.00
2018-10-21T02:19:35.650Z,0.00
2018-10-21T02:20:35.655Z,0.00
2018-10-21T02:21:40.402Z,0.00
2018-10-21T02:22:36.402Z,0.00
2018-10-21T02:23:36.407Z,0.00
2018-10-21T02:24:35.603Z,0.00
2018-10-21T02:25:35.601Z,0.00
2018-10-21T02:26:35.622Z,0.00
2018-10-21T02:27:36.407Z,0.00
2018-10-21T02:28:36.409Z,0.00
2018-10-21T02:29:35.566Z,0.00
2018-10-21T02:30:35.560Z,0.00
2018-10-21T02:31:35.544Z,0.00
2018-10-21T02:32:35.567Z,0.00
2018-10-21T02:33:35.761Z,0.00
2018-10-21T02:34:35.524Z,0.00
2018-10-21T02:35:42.473Z,0.00
2018-10-21T02:36:35.510Z,0.00
2018-10-21T02:37:35.493Z,0.00
2018-10-21T02:38:35.488Z,0.00
2018-10-21T02:39:36.415Z,0.00
2018-10-21T02:40:35.474Z,0.00
2018-10-21T02:41:36.415Z,0.00
2018-10-21T02:42:56.459Z,0.00
2018-10-21T02:43:36.413Z,0.00
2018-10-21T02:44:35.434Z,0.00
2018-10-21T02:45:35.429Z,0.00
2018-10-21T02:46:35.419Z,0.00
2018-10-21T02:47:35.422Z,0.00
2018-10-21T02:48:37.917Z,0.00
2018-10-21T02:49:35.917Z,0.00
2018-10-21T02:50:36.914Z,0.00
2018-10-21T02:51:35.413Z,0.00
2018-10-21T02:52:36.912Z,0.00
2018-10-21T02:53:35.363Z,0.00
2018-10-21T02:54:35.360Z,0.00
2018-10-21T02:55:35.347Z,0.00
2018-10-21T02:56:35.342Z,0.00
2018-10-21T02:57:35.919Z,0.00
2018-10-21T02:58:35.314Z,0.00
2018-10-21T02:59:35.324Z,0.00
2018-10-21T03:00:35.303Z,0.00
2018-10-21T03:01:35.292Z,0.00
2018-10-21T03:02:37.937Z,0.00
2018-10-21T03:03:35.940Z,0.00
2018-10-21T03:04:35.265Z,0.00
2018-10-21T03:05:35.260Z,0.00
2018-10-21T03:06:35.253Z,0.00
2018-10-21T03:07:35.252Z,0.00
2018-10-21T03:08:35.230Z,0.00
2018-10-21T03:09:36.918Z,0.00
2018-10-21T03:10:35.216Z,0.00
2018-10-21T03:11:35.202Z,0.00
2018-10-21T03:14:23.958Z,0.00
2018-10-21T03:15:07.715Z,0.00
2018-10-21T03:16:07.627Z,0.00
2018-10-21T03:18:40.070Z,0.00
2018-10-21T03:19:40.780Z,0.00
2018-10-21T03:21:34.607Z,0.00
2018-10-21T03:22:33.557Z,0.00
2018-10-21T03:23:33.544Z,0.00
2018-10-21T03:24:33.538Z,0.00
2018-10-21T03:25:33.539Z,0.00
2018-10-21T03:28:05.886Z,0.00
2018-10-21T03:29:05.834Z,0.00
2018-10-21T03:31:01.051Z,0.00
2018-10-21T03:32:00.998Z,0.00
2018-10-21T03:33:01.137Z,0.00
2018-10-21T03:34:02.970Z,0.00
2018-10-21T03:35:01.770Z,0.00
2018-10-21T03:36:00.955Z,0.00
2018-10-21T03:37:00.945Z,0.00
2018-10-21T03:38:00.937Z,0.00
2018-10-21T03:39:00.945Z,0.00
2018-10-21T03:40:00.943Z,0.00
2018-10-21T03:41:01.773Z,0.00
2018-10-21T03:42:00.902Z,0.00
2018-10-21T03:43:00.895Z,0.00
2018-10-21T03:44:00.890Z,0.00
2018-10-21T03:45:00.879Z,0.00
2018-10-21T03:46:00.937Z,0.00
2018-10-21T03:47:00.865Z,0.00
2018-10-21T03:48:02.774Z,0.00
2018-10-21T03:49:02.783Z,0.00
2018-10-21T03:50:00.843Z,0.00
2018-10-21T03:51:07.786Z,0.00
2018-10-21T03:52:00.872Z,0.00
2018-10-21T03:53:00.815Z,0.00
2018-10-21T03:54:01.781Z,0.00
2018-10-21T03:55:00.800Z,0.00
2018-10-21T03:56:00.780Z,0.00
2018-10-21T03:57:01.277Z,0.00
2018-10-21T03:58:00.766Z,0.00
2018-10-21T03:59:00.827Z,0.00
2018-10-21T04:00:01.275Z,0.00
2018-10-21T04:01:01.284Z,0.00
2018-10-21T04:02:00.732Z,0.00
2018-10-21T04:03:02.287Z,0.00
2018-10-21T04:04:00.730Z,0.00
2018-10-21T04:05:00.700Z,0.00
2018-10-21T04:06:00.697Z,0.00
2018-10-21T04:07:00.716Z,0.00
2018-10-21T04:08:01.280Z,0.00
2018-10-21T04:09:00.668Z,0.00
2018-10-21T04:10:00.668Z,0.00
2018-10-21T04:11:00.648Z,0.00
2018-10-21T04:12:00.639Z,0.00
2018-10-21T04:13:00.638Z,0.00
2018-10-21T04:14:01.287Z,0.00
2018-10-21T04:15:01.292Z,0.00
2018-10-21T04:16:00.646Z,0.00
2018-10-21T04:17:00.598Z,0.00
2018-10-21T04:18:00.590Z,0.00
2018-10-21T04:19:00.595Z,0.00
2018-10-21T04:20:02.285Z,0.00
2018-10-21T04:21:02.280Z,0.00
2018-10-21T04:22:02.329Z,0.00
2018-10-21T04:23:00.557Z,0.00
2018-10-21T04:24:01.284Z,0.00
2018-10-21T04:25:00.533Z,0.00
2018-10-21T04:26:00.542Z,0.00
2018-10-21T04:27:01.298Z,0.00
2018-10-21T04:28:01.302Z,0.00
2018-10-21T04:29:00.498Z,0.00
2018-10-21T04:30:00.513Z,0.00
2018-10-21T04:31:00.478Z,0.00
2018-10-21T04:32:00.477Z,0.00
2018-10-21T04:33:00.505Z,0.00
2018-10-21T04:34:00.508Z,0.00
2018-10-21T04:35:00.441Z,0.00
2018-10-21T04:36:02.289Z,0.00
2018-10-21T04:37:00.435Z,0.00
2018-10-21T04:38:00.424Z,0.00
2018-10-21T04:39:00.412Z,0.00
2018-10-21T04:40:00.466Z,0.00
2018-10-21T04:41:02.288Z,0.00
2018-10-21T04:42:00.382Z,0.00
2018-10-21T04:43:00.407Z,0.00
2018-10-21T04:44:00.370Z,0.00
2018-10-21T04:45:00.356Z,0.00
2018-10-21T04:46:00.407Z,0.00
2018-10-21T04:47:01.558Z,0.00
2018-10-21T04:48:01.293Z,0.00
2018-10-21T04:49:01.298Z,0.00
2018-10-21T04:50:00.340Z,0.00
2018-10-21T04:51:00.305Z,0.00
2018-10-21T04:52:00.353Z,0.00
2018-10-21T04:53:00.284Z,0.00
2018-10-21T04:54:01.797Z,0.00
2018-10-21T04:55:00.265Z,0.00
2018-10-21T04:56:01.804Z,0.00
2018-10-21T04:57:00.252Z,0.00
2018-10-21T04:58:00.299Z,0.00
2018-10-21T04:59:00.235Z,0.00
2018-10-21T05:00:00.230Z,0.00
2018-10-21T05:01:16.889Z,0.00
2018-10-21T05:02:00.805Z,0.00
2018-10-21T05:03:00.216Z,0.00
2018-10-21T05:04:00.207Z,0.00
2018-10-21T05:05:00.180Z,0.00
2018-10-21T05:06:00.176Z,0.00
2018-10-21T05:07:00.798Z,0.00
2018-10-21T05:08:00.820Z,0.00
2018-10-21T05:09:00.170Z,0.00
2018-10-21T05:10:00.183Z,0.00
2018-10-21T05:11:02.817Z,0.00
2018-10-21T05:12:00.118Z,0.00
2018-10-21T05:13:00.120Z,0.00
2018-10-21T05:14:02.808Z,0.00
2018-10-21T05:15:00.097Z,0.00
2018-10-21T05:16:00.807Z,0.00
2018-10-21T05:17:00.804Z,0.00
2018-10-21T05:18:00.812Z,0.00
2018-10-21T05:19:00.063Z,0.00
2018-10-21T05:20:00.808Z,0.00
2018-10-21T05:21:00.807Z,0.00
2018-10-21T05:22:00.809Z,0.00
2018-10-21T05:23:00.037Z,0.00
2018-10-21T05:24:00.077Z,0.00
2018-10-21T05:25:00.004Z,0.00
2018-10-21T05:25:59.999Z,0.00
2018-10-21T05:27:00.008Z,0.00
2018-10-21T05:28:00.107Z,0.00
2018-10-21T05:28:59.974Z,0.00
2018-10-21T05:30:01.816Z,0.00
2018-10-21T05:30:59.967Z,4.00
2018-10-21T05:31:59.950Z,0.00
2018-10-21T05:32:59.996Z,4.00
2018-10-21T05:34:00.858Z,4.00
2018-10-21T05:34:59.917Z,4.00
2018-10-21T05:35:59.908Z,4.00
2018-10-21T05:36:59.902Z,8.00
2018-10-21T05:37:59.975Z,8.00
2018-10-21T05:38:59.886Z,8.00
2018-10-21T05:40:00.870Z,8.00
2018-10-21T05:41:00.808Z,12.00
2018-10-21T05:42:00.814Z,16.00
2018-10-21T05:42:59.850Z,16.00
2018-10-21T05:44:01.823Z,20.00
2018-10-21T05:44:59.833Z,24.00
2018-10-21T05:45:59.848Z,28.00
2018-10-21T05:47:00.345Z,32.00
2018-10-21T05:48:01.317Z,40.00
2018-10-21T05:48:59.797Z,44.00
2018-10-21T05:49:59.790Z,48.00
2018-10-21T05:51:00.321Z,56.00
2018-10-21T05:51:59.839Z,64.00
2018-10-21T05:52:59.773Z,76.00
2018-10-21T05:54:00.318Z,88.00
2018-10-21T05:54:59.742Z,96.00
2018-10-21T05:56:00.330Z,108.00
2018-10-21T05:56:59.747Z,120.00
2018-10-21T05:58:00.445Z,136.00
2018-10-21T05:58:59.709Z,152.00
2018-10-21T05:59:59.701Z,168.00
2018-10-21T06:01:01.339Z,188.00
2018-10-21T06:01:59.681Z,208.00
2018-10-21T06:02:59.741Z,224.00
2018-10-21T06:04:01.359Z,248.00
2018-10-21T06:04:59.656Z,264.00
2018-10-21T06:05:59.651Z,288.00
2018-10-21T06:06:59.644Z,312.00
2018-10-21T06:07:59.634Z,336.00
2018-10-21T06:08:59.628Z,360.00
2018-10-21T06:09:59.620Z,388.00
2018-10-21T06:10:59.608Z,412.00
2018-10-21T06:11:59.590Z,440.00
2018-10-21T06:12:59.582Z,468.00
2018-10-21T06:14:00.321Z,500.00
2018-10-21T06:14:59.566Z,532.00
2018-10-21T06:15:59.622Z,564.00
2018-10-21T06:16:59.549Z,596.00
2018-10-21T06:17:59.545Z,632.00
2018-10-21T06:19:00.337Z,672.00
2018-10-21T06:19:59.567Z,708.00
2018-10-21T06:20:59.516Z,748.00
2018-10-21T06:21:59.519Z,788.00
2018-10-21T06:22:59.492Z,824.00
2018-10-21T06:23:59.488Z,868.00
2018-10-21T06:24:59.480Z,912.00
2018-10-21T06:25:59.466Z,960.00
2018-10-21T06:27:00.325Z,1004.00
2018-10-21T06:27:59.445Z,1052.00
2018-10-21T06:28:59.461Z,1100.00
2018-10-21T06:29:59.429Z,1144.00
2018-10-21T06:30:59.422Z,1188.00
2018-10-21T06:31:59.414Z,1232.00
2018-10-21T06:32:59.449Z,1276.00
2018-10-21T06:33:59.401Z,1324.00
2018-10-21T06:34:59.385Z,1364.00
2018-10-21T06:35:59.378Z,1408.00
2018-10-21T06:36:59.364Z,1452.00
2018-10-21T06:37:59.357Z,1496.00
2018-10-21T06:38:59.370Z,1540.00
2018-10-21T06:39:59.340Z,1588.00
2018-10-21T06:40:59.332Z,1628.00
2018-10-21T06:41:59.328Z,1676.00
2018-10-21T06:42:59.320Z,1716.00
2018-10-21T06:43:59.307Z,1756.00
2018-10-21T06:44:59.353Z,1792.00
2018-10-21T06:45:59.301Z,1832.00
2018-10-21T06:46:59.311Z,1876.00
2018-10-21T06:47:59.270Z,1924.00
2018-10-21T06:48:59.259Z,1972.00
2018-10-21T06:49:59.252Z,2036.00
2018-10-21T06:51:03.875Z,2084.00
2018-10-21T06:51:59.236Z,2120.00
2018-10-21T06:52:59.234Z,2164.00
2018-10-21T06:53:59.214Z,2212.00
2018-10-21T06:54:59.208Z,2296.00
2018-10-21T06:55:59.197Z,2392.00
2018-10-21T06:56:59.288Z,2444.00
2018-10-21T06:57:59.196Z,2424.00
2018-10-21T06:58:59.177Z,2440.00
2018-10-21T06:59:59.162Z,2556.00
2018-10-21T07:00:59.153Z,2580.00
2018-10-21T07:01:59.148Z,2556.00
2018-10-21T07:02:59.137Z,2596.00
2018-10-21T07:03:59.154Z,2636.00
2018-10-21T07:04:59.181Z,2688.00
2018-10-21T07:05:59.112Z,2744.00
2018-10-21T07:06:59.847Z,2784.00
2018-10-21T07:07:59.090Z,2832.00
2018-10-21T07:08:59.086Z,2888.00
2018-10-21T07:09:59.079Z,2944.00
2018-10-21T07:10:59.068Z,2992.00
2018-10-21T07:11:59.054Z,3036.00
2018-10-21T07:12:59.057Z,3068.00
2018-10-21T07:13:59.043Z,3100.00
2018-10-21T07:14:59.035Z,3124.00
2018-10-21T07:15:59.124Z,3148.00
2018-10-21T07:16:59.024Z,3180.00
2018-10-21T07:17:59.023Z,3220.00
2018-10-21T07:18:58.992Z,3252.00
2018-10-21T07:19:59.002Z,3276.00
2018-10-21T07:20:59.842Z,3316.00
2018-10-21T07:21:58.985Z,3348.00
2018-10-21T07:22:58.962Z,3380.00
2018-10-21T07:23:58.983Z,3420.00
2018-10-21T07:25:00.843Z,3476.00
2018-10-21T07:25:58.933Z,3520.00
2018-10-21T07:26:58.935Z,3568.00
2018-10-21T07:27:59.893Z,3600.00
2018-10-21T07:29:01.068Z,3632.00
2018-10-21T07:29:58.903Z,3680.00
2018-10-21T07:30:59.850Z,3728.00
2018-10-21T07:31:58.884Z,3776.00
2018-10-21T07:32:59.857Z,3808.00
2018-10-21T07:33:58.946Z,3836.00
2018-10-21T07:34:58.857Z,3876.00
2018-10-21T07:35:58.851Z,3908.00
2018-10-21T07:36:58.851Z,3944.00
2018-10-21T07:37:59.346Z,3988.00
2018-10-21T07:38:59.351Z,4024.00
2018-10-21T07:39:58.853Z,4068.00
2018-10-21T07:40:58.803Z,4112.00
2018-10-21T07:41:59.353Z,4156.00
2018-10-21T07:42:58.788Z,4196.00
2018-10-21T07:43:58.774Z,4248.00
2018-10-21T07:44:58.802Z,4296.00
2018-10-21T07:45:58.779Z,4352.00
2018-10-21T07:46:58.768Z,4388.00
2018-10-21T07:47:58.746Z,4444.00
2018-10-21T07:48:58.766Z,4460.00
2018-10-21T07:49:58.740Z,4484.00
2018-10-21T07:50:58.717Z,4508.00
2018-10-21T07:51:58.883Z,4516.00
2018-10-21T07:52:59.349Z,4556.00
2018-10-21T07:54:01.351Z,4600.00
2018-10-21T07:54:58.692Z,4632.00
2018-10-21T07:55:58.706Z,4668.00
2018-10-21T07:56:58.664Z,4712.00
2018-10-21T07:57:58.771Z,4836.00
2018-10-21T07:58:58.653Z,4880.00
2018-10-21T07:59:59.374Z,4808.00
2018-10-21T08:00:58.698Z,4832.00
2018-10-21T08:01:58.623Z,4864.00
2018-10-21T08:02:58.613Z,4896.00
2018-10-21T08:03:58.654Z,4936.00
2018-10-21T08:04:58.608Z,4984.00
2018-10-21T08:05:59.360Z,5024.00
2018-10-21T08:07:00.416Z,5064.00
2018-10-21T08:07:58.586Z,5120.00
2018-10-21T08:08:58.570Z,5176.00
2018-10-21T08:09:58.559Z,5240.00
2018-10-21T08:10:58.548Z,5292.00
2018-10-21T08:11:59.361Z,5348.00
2018-10-21T08:13:01.365Z,5400.00
2018-10-21T08:13:58.519Z,5520.00
2018-10-21T08:14:58.562Z,5944.00
2018-10-21T08:15:58.558Z,6208.00
2018-10-21T08:16:58.501Z,6148.00
2018-10-21T08:17:58.493Z,6120.00
2018-10-21T08:18:58.486Z,5876.00
2018-10-21T08:19:58.472Z,5644.00
2018-10-21T08:20:58.475Z,5712.00
2018-10-21T08:21:58.493Z,5768.00
2018-10-21T08:22:58.445Z,5816.00
2018-10-21T08:23:58.458Z,5892.00
2018-10-21T08:24:58.433Z,5952.00
2018-10-21T08:25:58.431Z,5980.00
2018-10-21T08:26:59.388Z,6028.00
2018-10-21T08:27:59.388Z,6088.00
2018-10-21T08:28:58.401Z,6168.00
2018-10-21T08:29:58.387Z,6452.00
2018-10-21T08:30:58.448Z,7172.00
2018-10-21T08:31:58.378Z,9268.00
2018-10-21T08:32:58.378Z,11772.00
2018-10-21T08:33:58.365Z,11552.00
2018-10-21T08:34:58.873Z,12784.00
2018-10-21T08:35:58.389Z,14808.00
2018-10-21T08:36:58.332Z,18496.00
2018-10-21T08:37:58.352Z,23392.00
2018-10-21T08:38:58.321Z,26560.00
2018-10-21T08:39:58.316Z,27488.00
2018-10-21T08:40:58.417Z,27840.00
2018-10-21T08:41:58.869Z,27136.00
2018-10-21T08:42:58.918Z,27360.00
2018-10-21T08:43:58.283Z,26240.00
2018-10-21T08:44:58.284Z,25824.00
2018-10-21T08:45:58.285Z,26624.00
2018-10-21T08:46:58.267Z,28256.00
2018-10-21T08:47:58.888Z,28512.00
2018-10-21T08:48:58.921Z,28448.00
2018-10-21T08:49:58.336Z,29056.00
2018-10-21T08:51:00.877Z,29248.00
2018-10-21T08:51:58.255Z,28864.00
2018-10-21T08:52:58.230Z,25600.00
2018-10-21T08:53:58.233Z,20000.00
2018-10-21T08:54:58.262Z,17760.00
2018-10-21T08:55:58.286Z,17760.00
2018-10-21T08:56:58.221Z,17952.00
2018-10-21T08:57:58.345Z,18176.00
2018-10-21T08:58:58.218Z,18240.00
2018-10-21T08:59:58.207Z,18432.00
2018-10-21T09:00:58.272Z,18656.00
2018-10-21T09:01:58.918Z,18752.00
2018-10-21T09:02:58.202Z,19232.00
2018-10-21T09:03:58.238Z,21760.00
2018-10-21T09:04:58.199Z,28704.00
2018-10-21T09:05:58.195Z,31808.00
2018-10-21T09:06:58.245Z,31520.00
2018-10-21T09:08:00.890Z,31520.00
2018-10-21T09:08:58.204Z,30944.00
2018-10-21T09:10:00.967Z,31488.00
2018-10-21T09:10:58.932Z,32896.00
2018-10-21T09:11:58.200Z,32832.00
2018-10-21T09:12:58.256Z,32544.00
2018-10-21T09:13:58.191Z,32704.00
2018-10-21T09:14:58.932Z,33600.00
2018-10-21T09:15:58.239Z,33024.00
2018-10-21T09:16:58.185Z,32128.00
2018-10-21T09:17:58.185Z,31904.00
2018-10-21T09:18:58.213Z,32896.00
2018-10-21T09:19:58.206Z,32416.00
2018-10-21T09:20:58.183Z,32256.00
2018-10-21T09:21:58.183Z,32288.00
2018-10-21T09:22:58.190Z,32672.00
2018-10-21T09:23:58.187Z,33696.00
2018-10-21T09:24:58.262Z,34624.00
2018-10-21T09:25:58.193Z,35520.00
2018-10-21T09:26:58.187Z,36064.00
2018-10-21T09:27:58.242Z,35840.00
2018-10-21T09:28:58.186Z,35744.00
2018-10-21T09:29:58.186Z,36032.00
2018-10-21T09:30:58.296Z,36128.00
2018-10-21T09:31:58.195Z,36064.00
2018-10-21T09:32:58.186Z,36992.00
2018-10-21T09:33:58.211Z,36800.00
2018-10-21T09:34:58.198Z,35680.00
2018-10-21T09:35:58.192Z,35360.00
2018-10-21T09:36:58.246Z,37344.00
2018-10-21T09:37:58.196Z,37984.00
2018-10-21T09:38:58.198Z,37472.00
2018-10-21T09:39:58.263Z,37984.00
2018-10-21T09:40:58.209Z,38688.00
2018-10-21T09:41:58.932Z,37600.00
2018-10-21T09:42:58.288Z,37696.00
2018-10-21T09:43:58.205Z,37120.00
2018-10-21T09:44:58.207Z,36544.00
2018-10-21T09:45:58.249Z,36096.00
2018-10-21T09:46:58.234Z,37056.00
2018-10-21T09:47:58.215Z,38688.00
2018-10-21T09:48:58.254Z,38880.00
2018-10-21T09:49:58.314Z,38176.00
2018-10-21T09:50:58.218Z,38464.00
2018-10-21T09:51:58.225Z,39104.00
2018-10-21T09:52:58.231Z,41536.00
2018-10-21T09:53:58.231Z,41248.00
2018-10-21T09:54:58.237Z,40896.00
2018-10-21T09:55:58.228Z,41248.00
2018-10-21T09:56:58.277Z,42592.00
2018-10-21T09:57:58.289Z,42656.00
2018-10-21T09:58:58.237Z,41952.00
2018-10-21T09:59:58.241Z,42624.00
2018-10-21T10:00:58.290Z,43040.00
2018-10-21T10:01:58.245Z,42816.00
2018-10-21T10:02:58.937Z,44096.00
2018-10-21T10:03:58.322Z,43840.00
2018-10-21T10:04:58.297Z,42976.00
2018-10-21T10:05:58.261Z,41792.00
2018-10-21T10:06:58.295Z,40736.00
2018-10-21T10:07:58.257Z,40640.00
2018-10-21T10:08:58.265Z,43168.00
2018-10-21T10:09:58.336Z,43744.00
2018-10-21T10:10:58.268Z,44288.00
2018-10-21T10:11:58.271Z,45344.00
2018-10-21T10:12:58.305Z,45408.00
2018-10-21T10:13:58.276Z,44704.00
2018-10-21T10:14:58.300Z,44064.00
2018-10-21T10:15:58.318Z,44640.00
2018-10-21T10:16:58.290Z,44896.00
2018-10-21T10:17:58.285Z,43872.00
2018-10-21T10:18:59.052Z,42080.00
2018-10-21T10:19:58.299Z,42016.00
2018-10-21T10:20:58.297Z,43808.00
2018-10-21T10:21:58.350Z,45440.00
2018-10-21T10:22:58.308Z,46144.00
2018-10-21T10:23:58.320Z,46112.00
2018-10-21T10:24:59.011Z,46400.00
2018-10-21T10:25:58.317Z,47264.00
2018-10-21T10:26:58.315Z,47136.00
2018-10-21T10:27:58.413Z,47040.00
2018-10-21T10:28:58.327Z,45376.00
2018-10-21T10:29:58.335Z,45056.00
2018-10-21T10:30:58.339Z,46336.00
2018-10-21T10:31:58.625Z,46912.00
2018-10-21T10:32:58.337Z,47648.00
2018-10-21T10:33:58.990Z,48960.00
2018-10-21T10:34:58.341Z,47552.00
2018-10-21T10:35:58.375Z,46304.00
2018-10-21T10:36:58.405Z,45920.00
2018-10-21T10:37:58.374Z,46432.00
2018-10-21T10:38:58.380Z,47936.00
2018-10-21T10:39:58.408Z,49984.00
2018-10-21T10:40:58.374Z,50560.00
2018-10-21T10:41:58.458Z,50784.00
2018-10-21T10:42:58.371Z,51392.00
2018-10-21T10:43:58.369Z,50176.00
2018-10-21T10:44:58.375Z,49120.00
2018-10-21T10:45:58.389Z,49024.00
2018-10-21T10:46:59.968Z,49216.00
2018-10-21T10:47:58.380Z,48736.00
2018-10-21T10:48:58.467Z,46336.00
2018-10-21T10:49:58.382Z,46016.00
2018-10-21T10:50:58.384Z,47712.00
2018-10-21T10:51:58.464Z,48416.00
2018-10-21T10:52:58.450Z,47872.00
2018-10-21T10:53:58.397Z,46720.00
2018-10-21T10:54:58.464Z,44832.00
2018-10-21T10:55:58.404Z,44736.00
2018-10-21T10:56:58.408Z,46368.00
2018-10-21T10:57:58.425Z,48032.00
2018-10-21T10:58:58.413Z,48576.00
2018-10-21T10:59:58.551Z,48320.00
2018-10-21T11:00:58.486Z,46592.00
2018-10-21T11:01:58.429Z,45440.00
2018-10-21T11:02:58.432Z,45120.00
2018-10-21T11:03:58.450Z,45024.00
2018-10-21T11:04:59.005Z,45280.00
2018-10-21T11:05:58.436Z,44800.00
2018-10-21T11:06:58.465Z,44512.00
2018-10-21T11:07:58.446Z,45952.00
2018-10-21T11:08:58.447Z,46976.00
2018-10-21T11:09:58.490Z,46368.00
2018-10-21T11:10:58.454Z,45664.00
2018-10-21T11:11:58.457Z,44448.00
2018-10-21T11:12:58.523Z,44352.00
2018-10-21T11:13:58.465Z,45056.00
2018-10-21T11:14:58.475Z,47296.00
2018-10-21T11:15:58.518Z,48928.00
2018-10-21T11:16:58.480Z,49760.00
2018-10-21T11:17:58.489Z,47488.00
2018-10-21T11:18:58.513Z,45888.00
2018-10-21T11:19:58.483Z,44768.00
2018-10-21T11:20:58.495Z,45280.00
2018-10-21T11:21:58.577Z,46944.00
2018-10-21T11:22:58.494Z,48000.00
2018-10-21T11:23:58.497Z,48256.00
2018-10-21T11:24:58.539Z,48000.00
2018-10-21T11:25:58.509Z,48864.00
2018-10-21T11:26:58.519Z,48064.00
2018-10-21T11:27:58.560Z,46592.00
2018-10-21T11:28:58.515Z,44544.00
2018-10-21T11:29:58.519Z,45376.00
2018-10-21T11:30:58.537Z,47968.00
2018-10-21T11:31:58.527Z,49216.00
2018-10-21T11:32:58.527Z,48448.00
2018-10-21T11:33:58.546Z,48192.00
2018-10-21T11:34:58.547Z,47840.00
2018-10-21T11:35:58.542Z,47648.00
2018-10-21T11:36:58.586Z,48064.00
2018-10-21T11:37:58.548Z,49120.00
2018-10-21T11:38:58.547Z,49792.00
2018-10-21T11:39:58.596Z,48096.00
2018-10-21T11:40:58.555Z,48736.00
2018-10-21T11:41:58.557Z,49024.00
2018-10-21T11:42:58.607Z,49056.00
2018-10-21T11:44:01.505Z,49216.00
2018-10-21T11:44:58.562Z,46752.00
2018-10-21T11:45:58.598Z,47936.00
2018-10-21T11:46:58.569Z,48224.00
2018-10-21T11:47:58.575Z,48288.00
2018-10-21T11:48:58.643Z,46624.00
2018-10-21T11:49:58.581Z,45408.00
2018-10-21T11:50:58.581Z,45888.00
2018-10-21T11:51:58.630Z,45600.00
2018-10-21T11:52:58.586Z,46432.00
2018-10-21T11:53:58.588Z,47680.00
2018-10-21T11:54:58.648Z,47552.00
2018-10-21T11:55:58.598Z,44832.00
2018-10-21T11:56:58.603Z,47520.00
2018-10-21T11:57:58.610Z,48768.00
2018-10-21T11:58:58.605Z,50208.00
2018-10-21T11:59:58.607Z,51104.00
2018-10-21T12:00:58.727Z,50720.00
2018-10-21T12:01:58.620Z,50432.00
2018-10-21T12:02:58.617Z,51136.00
2018-10-21T12:03:58.638Z,52032.00
2018-10-21T12:04:58.620Z,52832.00
2018-10-21T12:05:58.623Z,52768.00
2018-10-21T12:06:58.653Z,53632.00
2018-10-21T12:07:58.631Z,53056.00
2018-10-21T12:08:58.637Z,51328.00
2018-10-21T12:09:58.661Z,51136.00
2018-10-21T12:10:58.642Z,51360.00
2018-10-21T12:11:58.637Z,51360.00
2018-10-21T12:12:58.704Z,44608.00
2018-10-21T12:13:58.647Z,44800.00
2018-10-21T12:14:58.656Z,46432.00
2018-10-21T12:15:58.665Z,50752.00
2018-10-21T12:16:58.658Z,47968.00
2018-10-21T12:17:58.656Z,49088.00
2018-10-21T12:18:58.719Z,49600.00
2018-10-21T12:19:58.714Z,49472.00
2018-10-21T12:20:58.672Z,43104.00
2018-10-21T12:21:58.726Z,50976.00
2018-10-21T12:22:58.741Z,50336.00
2018-10-21T12:23:58.674Z,50752.00
2018-10-21T12:24:58.716Z,50720.00
2018-10-21T12:25:58.674Z,49120.00
2018-10-21T12:26:58.682Z,48160.00
2018-10-21T12:27:58.710Z,48480.00
2018-10-21T12:28:58.719Z,46944.00
2018-10-21T12:29:58.692Z,46848.00
2018-10-21T12:30:58.699Z,45984.00
2018-10-21T12:31:58.689Z,45632.00
2018-10-21T12:32:58.694Z,46272.00
2018-10-21T12:33:58.717Z,45728.00
2018-10-21T12:34:58.767Z,44864.00
2018-10-21T12:35:58.700Z,43936.00
2018-10-21T12:36:58.755Z,40256.00
2018-10-21T12:37:58.703Z,38944.00